createdAt,value
2023-04-22T00:01:04.475Z,42.37
2023-04-22T00:03:32.881Z,42.83
2023-04-22T00:06:00.135Z,42.93
2023-04-22T00:08:27.312Z,40.77
2023-04-22T00:10:54.184Z,42.23
2023-04-22T00:13:21.080Z,41.67
2023-04-22T00:15:47.994Z,41.63
2023-04-22T00:18:14.999Z,42.17
2023-04-22T00:20:43.777Z,42.03
2023-04-22T00:23:12.792Z,41.60
2023-04-22T00:25:40.617Z,42.80
2023-04-22T00:28:07.502Z,42.93
2023-04-22T00:30:35.250Z,41.83
2023-04-22T00:33:02.190Z,41.13
2023-04-22T00:35:29.590Z,41.60
2023-04-22T00:37:56.525Z,41.17
2023-04-22T00:40:23.417Z,41.47
2023-04-22T00:42:50.946Z,42.67
2023-04-22T00:45:19.369Z,44.63
2023-04-22T00:47:46.636Z,41.13
2023-04-22T00:50:13.867Z,41.40
2023-04-22T00:52:40.781Z,40.77
2023-04-22T00:55:08.566Z,41.53
2023-04-22T00:57:36.068Z,42.20
2023-04-22T01:00:04.800Z,41.77
2023-04-22T01:02:32.125Z,43.07
2023-04-22T01:05:00.029Z,42.23
2023-04-22T01:07:27.039Z,41.27
2023-04-22T01:09:53.955Z,43.07
2023-04-22T01:12:20.785Z,41.37
2023-04-22T01:14:47.690Z,41.27
2023-04-22T01:17:16.253Z,41.73
2023-04-22T01:19:44.375Z,40.63
2023-04-22T01:22:13.758Z,42.17
2023-04-22T01:24:40.944Z,40.10
2023-04-22T01:27:08.879Z,42.63
2023-04-22T01:29:38.422Z,40.17
2023-04-22T01:32:06.342Z,39.47
2023-04-22T01:34:33.272Z,41.00
2023-04-22T01:37:00.154Z,41.57
2023-04-22T01:39:27.510Z,39.97
2023-04-22T01:41:55.687Z,39.83
2023-04-22T01:44:22.737Z,37.07
2023-04-22T01:46:50.104Z,37.33
2023-04-22T01:49:16.918Z,34.57
2023-04-22T01:51:43.742Z,35.00
2023-04-22T01:54:10.903Z,35.20
2023-04-22T01:56:38.933Z,36.13
2023-04-22T01:59:06.034Z,35.43
2023-04-22T02:01:35.859Z,37.13
2023-04-22T02:04:02.829Z,34.43
2023-04-22T02:06:29.743Z,33.40
2023-04-22T02:08:56.573Z,34.97
2023-04-22T02:11:23.335Z,35.87
2023-04-22T02:13:50.985Z,38.20
2023-04-22T02:16:17.938Z,36.10
2023-04-22T02:18:44.918Z,34.50
2023-04-22T02:21:11.750Z,38.90
2023-04-22T02:23:41.388Z,38.10
2023-04-22T02:26:08.722Z,37.00
2023-04-22T02:28:35.656Z,37.80
2023-04-22T02:31:02.747Z,38.80
2023-04-22T02:33:29.703Z,39.53
2023-04-22T02:35:56.459Z,37.90
2023-04-22T02:38:23.697Z,39.00
2023-04-22T02:40:50.517Z,37.17
2023-04-22T02:43:17.528Z,37.00
2023-04-22T02:45:44.494Z,37.67
2023-04-22T02:48:11.500Z,37.23
2023-04-22T02:50:38.388Z,36.93
2023-04-22T02:53:05.309Z,39.20
2023-04-22T02:55:32.175Z,39.33
2023-04-22T02:57:59.038Z,39.53
2023-04-22T03:00:26.173Z,39.07
2023-04-22T03:02:53.579Z,41.30
2023-04-22T03:05:25.308Z,38.77
2023-04-22T03:07:52.152Z,39.43
2023-04-22T03:10:19.405Z,39.03
2023-04-22T03:12:46.236Z,37.30
2023-04-22T03:15:13.247Z,37.67
2023-04-22T03:17:39.986Z,39.53
2023-04-22T03:20:11.771Z,39.53
2023-04-22T03:22:38.662Z,41.23
2023-04-22T03:25:07.750Z,38.23
2023-04-22T03:27:34.644Z,40.60
2023-04-22T03:30:01.456Z,39.40
2023-04-22T03:32:28.469Z,38.03
2023-04-22T03:35:13.103Z,38.90
2023-04-22T03:37:40.002Z,38.73
2023-04-22T03:40:09.628Z,39.83
2023-04-22T03:42:37.371Z,40.30
2023-04-22T03:45:05.305Z,39.27
2023-04-22T03:47:36.516Z,41.03
2023-04-22T03:50:13.167Z,39.33
2023-04-22T03:52:40.375Z,41.50
2023-04-22T03:55:07.529Z,41.77
2023-04-22T03:57:35.799Z,42.03
2023-04-22T04:00:02.900Z,43.33
2023-04-22T04:02:30.442Z,39.97
2023-04-22T04:04:59.399Z,40.90
2023-04-22T04:07:26.747Z,40.77
2023-04-22T04:09:53.728Z,39.40
2023-04-22T04:12:20.600Z,39.50
2023-04-22T04:14:47.574Z,39.20
2023-04-22T04:17:18.352Z,39.07
2023-04-22T04:19:45.479Z,41.13
2023-04-22T04:22:12.399Z,40.07
2023-04-22T04:24:49.810Z,38.67
2023-04-22T04:27:23.748Z,39.40
2023-04-22T04:29:53.234Z,39.40
2023-04-22T04:32:34.486Z,41.73
2023-04-22T04:35:05.012Z,41.20
2023-04-22T04:37:32.076Z,42.23
2023-04-22T04:40:04.799Z,39.97
2023-04-22T04:42:43.493Z,41.57
2023-04-22T04:45:17.668Z,40.57
2023-04-22T04:47:46.228Z,40.77
2023-04-22T04:50:22.755Z,39.63
2023-04-22T04:52:51.628Z,41.93
2023-04-22T04:55:24.158Z,41.73
2023-04-22T04:57:51.775Z,41.40
2023-04-22T05:00:19.045Z,40.40
2023-04-22T05:02:46.635Z,41.43
2023-04-22T05:05:13.946Z,40.83
2023-04-22T05:07:43.154Z,42.53
2023-04-22T05:10:11.979Z,40.97
2023-04-22T05:12:39.211Z,39.53
2023-04-22T05:15:09.174Z,40.93
2023-04-22T05:17:37.865Z,40.80
2023-04-22T05:20:05.219Z,41.17
2023-04-22T05:22:32.180Z,41.43
2023-04-22T05:24:59.020Z,40.27
2023-04-22T05:27:25.937Z,42.33
2023-04-22T05:29:53.098Z,42.80
2023-04-22T05:32:25.391Z,43.77
2023-04-22T05:34:53.009Z,43.57
2023-04-22T05:37:19.905Z,44.47
2023-04-22T05:39:47.697Z,44.53
2023-04-22T05:42:15.064Z,44.23
2023-04-22T05:44:42.763Z,45.23
2023-04-22T05:47:09.694Z,43.23
2023-04-22T05:49:36.535Z,44.50
2023-04-22T05:52:03.529Z,43.20
2023-04-22T05:54:40.215Z,41.23
2023-04-22T05:57:08.305Z,42.63
2023-04-22T05:59:35.227Z,44.00
2023-04-22T06:02:02.468Z,43.43
2023-04-22T06:04:30.054Z,44.17
2023-04-22T06:06:57.183Z,43.37
2023-04-22T06:09:24.611Z,43.53
2023-04-22T06:11:51.774Z,43.70
2023-04-22T06:14:19.183Z,43.50
2023-04-22T06:16:47.233Z,43.30
2023-04-22T06:19:14.070Z,43.60
2023-04-22T06:21:42.559Z,43.03
2023-04-22T06:24:10.366Z,45.87
2023-04-22T06:26:38.010Z,46.33
2023-04-22T06:29:05.640Z,47.90
2023-04-22T06:31:34.087Z,47.97
2023-04-22T06:34:00.904Z,47.30
2023-04-22T06:36:30.279Z,48.87
2023-04-22T06:39:01.108Z,49.90
2023-04-22T06:41:46.484Z,52.73
2023-04-22T06:44:29.592Z,53.93
2023-04-22T06:47:25.714Z,52.53
2023-04-22T06:49:59.374Z,52.47
2023-04-22T06:52:35.267Z,51.17
2023-04-22T06:55:03.714Z,52.97
2023-04-22T06:57:31.083Z,50.93
2023-04-22T06:59:58.178Z,49.93
2023-04-22T07:02:27.243Z,53.47
2023-04-22T07:04:54.122Z,54.90
2023-04-22T07:07:21.140Z,56.97
2023-04-22T07:09:48.905Z,54.00
2023-04-22T07:12:15.980Z,55.90
2023-04-22T07:14:44.592Z,53.73
2023-04-22T07:17:11.979Z,53.43
2023-04-22T07:19:39.510Z,52.37
2023-04-22T07:22:06.914Z,53.30
2023-04-22T07:24:33.840Z,53.80
2023-04-22T07:27:02.252Z,53.83
2023-04-22T07:29:29.057Z,54.67
2023-04-22T07:31:55.902Z,55.20
2023-04-22T07:34:22.796Z,62.70
2023-04-22T07:36:53.579Z,62.40
2023-04-22T07:39:20.687Z,59.00
2023-04-22T07:41:47.506Z,59.97
2023-04-22T07:44:18.326Z,58.37
2023-04-22T07:46:45.259Z,56.00
2023-04-22T07:49:14.260Z,55.23
2023-04-22T07:51:41.381Z,53.33
2023-04-22T07:54:08.129Z,46.00
2023-04-22T07:56:35.124Z,46.50
2023-04-22T07:59:02.483Z,48.43
2023-04-22T08:01:29.341Z,48.47
2023-04-22T08:03:57.275Z,51.80
2023-04-22T08:06:24.290Z,47.73
2023-04-22T08:08:51.128Z,31.27
2023-04-22T08:11:18.085Z,29.63
2023-04-22T08:13:44.915Z,30.90
2023-04-22T08:16:11.991Z,38.53
2023-04-22T08:18:38.902Z,27.90
2023-04-22T08:21:05.936Z,30.17
2023-04-22T08:23:32.771Z,28.00
2023-04-22T08:25:59.651Z,27.60
2023-04-22T08:28:26.877Z,27.17
2023-04-22T08:30:53.717Z,28.07
2023-04-22T08:33:20.551Z,33.80
2023-04-22T08:35:47.861Z,43.53
2023-04-22T08:38:14.700Z,41.03
2023-04-22T08:40:42.402Z,41.20
2023-04-22T08:43:09.691Z,31.80
2023-04-22T08:45:39.515Z,28.30
2023-04-22T08:48:09.210Z,28.30
2023-04-22T08:50:39.045Z,29.80
2023-04-22T08:53:05.894Z,26.17
2023-04-22T08:55:33.711Z,26.07
2023-04-22T08:58:06.040Z,30.30
2023-04-22T09:00:34.638Z,26.07
2023-04-22T09:03:03.188Z,25.63
2023-04-22T09:05:34.012Z,24.27
2023-04-22T09:08:02.147Z,22.60
2023-04-22T09:10:31.100Z,26.87
2023-04-22T09:13:00.120Z,28.93
2023-04-22T09:15:27.749Z,23.20
2023-04-22T09:17:54.765Z,21.73
2023-04-22T09:20:27.452Z,22.03
2023-04-22T09:22:55.722Z,22.33
2023-04-22T09:25:28.756Z,21.17
2023-04-22T09:27:57.892Z,21.67
2023-04-22T09:30:29.155Z,22.43
2023-04-22T09:32:57.613Z,21.40
2023-04-22T09:35:34.855Z,20.30
2023-04-22T09:38:06.258Z,20.87
2023-04-22T09:40:34.189Z,23.10
2023-04-22T09:43:03.464Z,24.30
2023-04-22T09:45:34.636Z,23.40
2023-04-22T09:48:17.268Z,21.40
2023-04-22T09:50:49.514Z,23.83
2023-04-22T09:53:19.730Z,23.33
2023-04-22T09:55:51.493Z,22.10
2023-04-22T09:58:20.197Z,23.73
2023-04-22T10:00:50.658Z,25.87
2023-04-22T10:03:18.312Z,24.23
2023-04-22T10:05:46.235Z,23.80
2023-04-22T10:08:14.833Z,23.47
2023-04-22T10:10:42.510Z,24.10
2023-04-22T10:13:09.667Z,23.57
2023-04-22T10:15:48.014Z,25.00
2023-04-22T10:18:20.602Z,25.60
2023-04-22T10:20:47.909Z,26.10
2023-04-22T10:23:18.942Z,21.43
2023-04-22T10:25:52.978Z,22.67
2023-04-22T10:28:21.886Z,21.60
2023-04-22T10:30:49.389Z,21.67
2023-04-22T10:33:27.372Z,22.93
2023-04-22T10:36:20.210Z,23.40
2023-04-22T10:38:55.967Z,24.20
2023-04-22T10:41:24.089Z,24.10
2023-04-22T10:43:59.294Z,25.37
2023-04-22T10:46:32.873Z,25.40
2023-04-22T10:49:06.828Z,22.97
2023-04-22T10:51:41.236Z,23.30
2023-04-22T10:54:31.509Z,23.30
2023-04-22T10:57:12.991Z,24.37
2023-04-22T10:59:48.775Z,24.93
2023-04-22T11:02:18.082Z,26.43
2023-04-22T11:04:45.645Z,25.73
2023-04-22T11:07:18.299Z,24.80
2023-04-22T11:09:47.074Z,24.63
2023-04-22T11:12:38.703Z,26.20
2023-04-22T11:15:05.589Z,26.33
2023-04-22T11:17:32.794Z,26.87
2023-04-22T11:20:00.249Z,25.80
2023-04-22T11:22:27.433Z,25.33
2023-04-22T11:24:58.310Z,25.37
2023-04-22T11:27:30.312Z,27.47
2023-04-22T11:30:15.036Z,26.90
2023-04-22T11:32:46.999Z,25.10
2023-04-22T11:35:26.526Z,26.60
2023-04-22T11:37:59.164Z,25.23
2023-04-22T11:40:35.224Z,24.73
2023-04-22T11:43:06.072Z,24.40
2023-04-22T11:45:35.140Z,27.33
2023-04-22T11:48:02.963Z,32.30
2023-04-22T11:50:32.899Z,34.00
2023-04-22T11:53:02.287Z,31.70
2023-04-22T11:55:32.232Z,30.57
2023-04-22T11:57:59.029Z,33.57
2023-04-22T12:00:37.326Z,38.07
2023-04-22T12:03:08.067Z,46.77
2023-04-22T12:05:46.225Z,52.67
2023-04-22T12:08:18.708Z,60.13
2023-04-22T12:10:48.506Z,58.33
2023-04-22T12:13:25.761Z,57.77
2023-04-22T12:16:00.322Z,59.23
2023-04-22T12:18:34.121Z,57.70
2023-04-22T12:21:04.228Z,51.43
2023-04-22T12:23:40.883Z,48.00
2023-04-22T12:26:08.032Z,49.73
2023-04-22T12:28:34.913Z,52.90
2023-04-22T12:31:01.830Z,50.93
2023-04-22T12:33:28.657Z,46.17
2023-04-22T12:35:56.681Z,41.67
2023-04-22T12:38:23.571Z,47.57
2023-04-22T12:40:51.141Z,42.47
2023-04-22T12:43:18.396Z,46.80
2023-04-22T12:45:45.378Z,52.67
2023-04-22T12:48:12.328Z,56.37
2023-04-22T12:50:39.110Z,62.70
2023-04-22T12:53:05.941Z,63.30
2023-04-22T12:55:33.524Z,64.03
2023-04-22T12:58:00.552Z,59.23
2023-04-22T13:00:27.477Z,62.10
2023-04-22T13:02:54.338Z,64.03
2023-04-22T13:05:21.246Z,61.97
2023-04-22T13:07:59.609Z,62.27
2023-04-22T13:10:33.500Z,63.23
2023-04-22T13:13:13.641Z,58.50
2023-04-22T13:15:44.462Z,59.00
2023-04-22T13:18:11.588Z,56.60
2023-04-22T13:20:38.559Z,58.27
2023-04-22T13:23:05.472Z,55.03
2023-04-22T13:25:32.511Z,54.03
2023-04-22T13:27:59.539Z,55.17
2023-04-22T13:30:26.473Z,52.23
2023-04-22T13:32:53.650Z,52.40
2023-04-22T13:35:20.824Z,54.37
2023-04-22T13:37:47.886Z,52.90
2023-04-22T13:40:15.009Z,55.57
2023-04-22T13:42:42.811Z,56.40
2023-04-22T13:45:10.046Z,54.57
2023-04-22T13:47:36.998Z,55.80
2023-04-22T13:50:05.939Z,54.57
2023-04-22T13:52:33.974Z,55.07
2023-04-22T13:55:02.402Z,53.77
2023-04-22T13:57:29.226Z,53.90
2023-04-22T13:59:56.027Z,51.87
2023-04-22T14:02:22.979Z,50.10
2023-04-22T14:04:49.839Z,51.23
2023-04-22T14:07:16.694Z,49.63
2023-04-22T14:09:43.738Z,50.07
2023-04-22T14:12:11.278Z,51.03
2023-04-22T14:14:38.391Z,51.40
2023-04-22T14:17:05.450Z,53.67
2023-04-22T14:19:32.375Z,53.73
2023-04-22T14:21:59.210Z,52.07
2023-04-22T14:24:26.094Z,51.53
2023-04-22T14:26:53.931Z,52.30
2023-04-22T14:29:21.090Z,54.77
2023-04-22T14:31:49.838Z,54.03
2023-04-22T14:34:17.280Z,53.23
2023-04-22T14:36:44.294Z,50.90
2023-04-22T14:39:12.192Z,51.73
2023-04-22T14:41:39.098Z,56.33
2023-04-22T14:44:06.166Z,54.27
2023-04-22T14:46:33.241Z,56.60
2023-04-22T14:49:00.096Z,57.27
2023-04-22T14:51:28.978Z,54.73
2023-04-22T14:53:56.469Z,54.27
2023-04-22T14:56:24.249Z,54.17
2023-04-22T14:58:51.080Z,54.27
2023-04-22T15:01:18.000Z,55.43
2023-04-22T15:03:45.136Z,50.47
2023-04-22T15:06:12.057Z,51.97
2023-04-22T15:08:39.963Z,50.43
2023-04-22T15:11:06.866Z,51.60
2023-04-22T15:13:33.763Z,50.37
2023-04-22T15:16:00.703Z,47.53
2023-04-22T15:18:28.224Z,50.77
2023-04-22T15:20:55.299Z,52.63
2023-04-22T15:23:22.261Z,52.87
2023-04-22T15:25:49.201Z,52.00
2023-04-22T15:28:16.082Z,51.80
2023-04-22T15:30:43.773Z,50.50
2023-04-22T15:33:10.682Z,51.40
2023-04-22T15:35:37.560Z,51.80
2023-04-22T15:38:06.036Z,55.37
2023-04-22T15:40:32.893Z,60.10
2023-04-22T15:42:59.672Z,59.30
2023-04-22T15:45:26.477Z,56.77
2023-04-22T15:47:53.797Z,56.97
2023-04-22T15:50:23.237Z,52.33
2023-04-22T15:52:50.080Z,53.90
2023-04-22T15:55:17.017Z,54.93
2023-04-22T15:57:43.772Z,58.30
2023-04-22T16:00:13.440Z,60.03
2023-04-22T16:02:42.288Z,61.17
2023-04-22T16:05:10.140Z,59.23
2023-04-22T16:07:37.023Z,56.27
2023-04-22T16:10:04.183Z,54.80
2023-04-22T16:12:32.744Z,56.90
2023-04-22T16:15:01.123Z,55.47
2023-04-22T16:17:28.021Z,55.83
2023-04-22T16:19:55.342Z,56.73
2023-04-22T16:22:22.202Z,57.87
2023-04-22T16:24:49.016Z,58.60
2023-04-22T16:27:17.381Z,61.97
2023-04-22T16:29:44.264Z,59.33
2023-04-22T16:32:11.602Z,57.57
2023-04-22T16:34:38.932Z,57.67
2023-04-22T16:37:06.425Z,56.93
2023-04-22T16:39:33.825Z,58.70
2023-04-22T16:42:02.232Z,59.07
2023-04-22T16:44:29.083Z,58.50
2023-04-22T16:46:55.912Z,58.07
2023-04-22T16:49:22.780Z,59.73
2023-04-22T16:51:49.664Z,52.43
2023-04-22T16:54:16.444Z,57.63
2023-04-22T16:56:43.253Z,54.77
2023-04-22T16:59:10.168Z,56.60
2023-04-22T17:01:37.078Z,54.07
2023-04-22T17:04:04.156Z,57.93
2023-04-22T17:06:31.290Z,56.03
2023-04-22T17:08:59.748Z,57.60
2023-04-22T17:11:26.583Z,55.57
2023-04-22T17:13:53.390Z,56.27
2023-04-22T17:16:20.938Z,56.33
2023-04-22T17:18:48.207Z,57.93
2023-04-22T17:21:16.693Z,57.60
2023-04-22T17:23:43.566Z,48.87
2023-04-22T17:26:10.330Z,50.57
2023-04-22T17:28:37.211Z,54.70
2023-04-22T17:31:04.195Z,53.87
2023-04-22T17:33:31.234Z,56.57
2023-04-22T17:35:58.242Z,57.67
2023-04-22T17:38:25.032Z,66.70
2023-04-22T17:40:51.843Z,58.83
2023-04-22T17:43:18.664Z,54.60
2023-04-22T17:45:45.545Z,49.40
2023-04-22T17:48:12.342Z,50.87
2023-04-22T17:50:39.280Z,52.03
2023-04-22T17:53:06.134Z,55.47
2023-04-22T17:55:35.226Z,53.63
2023-04-22T17:58:03.863Z,56.57
2023-04-22T18:00:32.839Z,55.63
2023-04-22T18:02:59.995Z,51.20
2023-04-22T18:05:29.777Z,50.47
2023-04-22T18:08:02.585Z,52.53
2023-04-22T18:10:30.299Z,53.07
2023-04-22T18:12:57.126Z,52.40
2023-04-22T18:15:23.970Z,59.90
2023-04-22T18:17:51.286Z,65.10
2023-04-22T18:20:19.483Z,60.60
2023-04-22T18:22:48.224Z,59.40
2023-04-22T18:25:15.932Z,55.17
2023-04-22T18:27:42.919Z,61.10
2023-04-22T18:30:10.148Z,59.33
2023-04-22T18:32:37.666Z,56.10
2023-04-22T18:35:05.075Z,55.37
2023-04-22T18:37:34.532Z,54.37
2023-04-22T18:40:02.317Z,63.77
2023-04-22T18:42:29.189Z,57.27
2023-04-22T18:44:56.090Z,56.27
2023-04-22T18:47:23.142Z,41.17
2023-04-22T18:49:50.012Z,59.90
2023-04-22T18:52:17.495Z,66.10
2023-04-22T18:54:44.513Z,57.47
2023-04-22T18:57:11.330Z,59.93
2023-04-22T18:59:38.458Z,60.20
2023-04-22T19:02:06.555Z,70.28
2023-04-22T19:04:33.640Z,64.07
2023-04-22T19:07:00.933Z,67.57
2023-04-22T19:09:27.828Z,64.80
2023-04-22T19:11:55.273Z,62.83
2023-04-22T19:14:22.150Z,71.43
2023-04-22T19:16:49.296Z,61.27
2023-04-22T19:19:16.210Z,73.85
2023-04-22T19:21:43.605Z,68.20
2023-04-22T19:24:10.733Z,64.20
2023-04-22T19:26:37.721Z,64.27
2023-04-22T19:29:04.525Z,64.97
2023-04-22T19:31:31.699Z,65.87
2023-04-22T19:33:59.196Z,69.17
2023-04-22T19:36:25.967Z,65.50
2023-04-22T19:38:52.793Z,64.57
2023-04-22T19:41:19.653Z,67.30
2023-04-22T19:43:46.941Z,62.97
2023-04-22T19:46:13.897Z,62.17
2023-04-22T19:48:40.948Z,71.97
2023-04-22T19:51:07.898Z,72.03
2023-04-22T19:53:35.521Z,69.43
2023-04-22T19:56:03.114Z,69.53
2023-04-22T19:58:31.590Z,71.03
2023-04-22T20:00:58.673Z,82.57
2023-04-22T20:03:26.331Z,66.77
2023-04-22T20:05:54.596Z,67.63
2023-04-22T20:08:25.800Z,86.83
2023-04-22T20:10:53.619Z,97.50
2023-04-22T20:13:21.144Z,87.67
2023-04-22T20:15:48.099Z,77.37
2023-04-22T20:18:15.057Z,74.63
2023-04-22T20:20:44.878Z,68.20
2023-04-22T20:23:14.279Z,66.47
2023-04-22T20:25:47.014Z,64.87
2023-04-22T20:28:14.419Z,63.50
2023-04-22T20:30:41.505Z,63.60
2023-04-22T20:33:10.697Z,63.50
2023-04-22T20:35:38.909Z,64.00
2023-04-22T20:38:06.816Z,62.43
2023-04-22T20:40:34.795Z,65.73
2023-04-22T20:43:02.531Z,64.87
2023-04-22T20:45:29.346Z,61.83
2023-04-22T20:47:58.250Z,62.63
2023-04-22T20:50:25.785Z,61.30
2023-04-22T20:52:53.259Z,64.97
2023-04-22T20:55:20.215Z,67.87
2023-04-22T20:57:46.983Z,67.63
2023-04-22T21:00:14.344Z,70.60
2023-04-22T21:02:42.797Z,69.23
2023-04-22T21:05:11.375Z,66.97
2023-04-22T21:07:43.523Z,62.43
2023-04-22T21:10:10.805Z,63.87
2023-04-22T21:12:38.345Z,65.20
2023-04-22T21:15:06.150Z,64.15
2023-04-22T21:17:35.245Z,66.47
2023-04-22T21:20:04.904Z,73.75
2023-04-22T21:22:32.677Z,66.53
2023-04-22T21:25:00.193Z,67.10
2023-04-22T21:27:27.433Z,67.87
2023-04-22T21:29:54.611Z,66.80
2023-04-22T21:32:21.693Z,68.17
2023-04-22T21:34:48.589Z,68.43
2023-04-22T21:37:15.680Z,66.77
2023-04-22T21:39:42.711Z,70.73
2023-04-22T21:42:09.521Z,70.80
2023-04-22T21:44:37.735Z,70.50
2023-04-22T21:47:06.280Z,71.37
2023-04-22T21:49:33.084Z,71.90
2023-04-22T21:52:00.035Z,72.93
2023-04-22T21:54:27.036Z,70.73
2023-04-22T21:56:53.874Z,70.37
2023-04-22T21:59:20.639Z,71.47
2023-04-22T22:01:47.501Z,69.93
2023-04-22T22:04:15.987Z,70.90
2023-04-22T22:06:45.120Z,72.70
2023-04-22T22:09:12.696Z,76.50
2023-04-22T22:11:39.571Z,70.80
2023-04-22T22:14:06.447Z,68.27
2023-04-22T22:16:33.656Z,71.57
2023-04-22T22:19:02.792Z,70.33
2023-04-22T22:21:31.291Z,72.47
2023-04-22T22:23:58.105Z,74.30
2023-04-22T22:26:25.058Z,74.17
2023-04-22T22:28:51.872Z,74.10
2023-04-22T22:31:18.925Z,74.87
2023-04-22T22:33:45.883Z,72.47
2023-04-22T22:36:12.912Z,75.70
2023-04-22T22:38:39.743Z,74.43
2023-04-22T22:41:06.497Z,75.53
2023-04-22T22:43:33.295Z,75.47
2023-04-22T22:46:00.415Z,76.00
2023-04-22T22:48:27.539Z,74.67
2023-04-22T22:50:54.332Z,74.10
2023-04-22T22:53:21.433Z,78.33
2023-04-22T22:55:48.254Z,74.63
2023-04-22T22:58:15.119Z,73.50
2023-04-22T23:00:42.196Z,77.00
2023-04-22T23:03:09.278Z,76.00
2023-04-22T23:05:36.288Z,74.53
2023-04-22T23:08:03.251Z,73.67
2023-04-22T23:10:30.155Z,76.63
2023-04-22T23:12:56.960Z,73.13
2023-04-22T23:15:23.720Z,75.67
2023-04-22T23:17:51.174Z,73.73
2023-04-22T23:20:18.631Z,74.90
2023-04-22T23:22:47.804Z,74.93
2023-04-22T23:25:15.414Z,75.90
2023-04-22T23:27:42.635Z,75.00
2023-04-22T23:30:09.795Z,75.40
2023-04-22T23:32:40.075Z,74.70
2023-04-22T23:35:08.383Z,75.03
2023-04-22T23:37:37.839Z,74.07
2023-04-22T23:40:06.714Z,75.70
2023-04-22T23:42:33.513Z,74.73
2023-04-22T23:45:00.322Z,75.67
2023-04-22T23:47:27.382Z,74.20
2023-04-22T23:49:54.256Z,78.30
2023-04-22T23:52:21.063Z,75.43
2023-04-22T23:54:48.265Z,77.53
2023-04-22T23:57:16.139Z,80.57
2023-04-22T23:59:43.558Z,76.60
